Ithaca Tompkins Regional Airport

Date: 2024-06-11 10:56:00Z

Type: METAR

Weather: Light Rain

Winds: 320° at 3 kts

Visibility: 3

Ceiling (AGL FT): Clouds OVERCAST at 1200, SCATTERED at 4000, BROKEN at 25000, BROKEN at 7000

RAW METAR: KITH 111056Z 32003KT 3SM -RA BR OVC012 11/10 A2995 RMK AO2 RAE25B43 SLP142 P0000 T01110100

project-image